createdAt,value
2022-10-08T00:00:46.032Z,101147.81
2022-10-08T00:03:13.861Z,101147.63
2022-10-08T00:05:43.225Z,101148.91
2022-10-08T00:08:11.434Z,101146.00
2022-10-08T00:10:38.963Z,101141.06
2022-10-08T00:13:06.519Z,101142.72
2022-10-08T00:15:37.994Z,101148.28
2022-10-08T00:18:05.606Z,101133.66
2022-10-08T00:20:33.240Z,101139.84
2022-10-08T00:23:02.495Z,101149.09
2022-10-08T00:25:30.107Z,101145.00
2022-10-08T00:27:57.640Z,101144.16
2022-10-08T00:30:25.159Z,101143.97
2022-10-08T00:32:56.500Z,101150.94
2022-10-08T00:35:26.634Z,101148.28
2022-10-08T00:37:54.163Z,101147.66
2022-10-08T00:40:23.074Z,101154.69
2022-10-08T00:42:50.615Z,101156.31
2022-10-08T00:45:18.306Z,101149.50
2022-10-08T00:47:48.970Z,101152.00
2022-10-08T00:50:23.554Z,101160.22
2022-10-08T00:52:54.992Z,101164.34
2022-10-08T00:55:27.086Z,101143.31
2022-10-08T00:57:58.217Z,101142.06
2022-10-08T01:00:27.034Z,101144.69
2022-10-08T01:02:54.699Z,101145.50
2022-10-08T01:05:28.993Z,101144.06
2022-10-08T01:08:05.406Z,101132.72
2022-10-08T01:10:41.752Z,101141.38
2022-10-08T01:13:18.127Z,101131.47
2022-10-08T01:15:52.727Z,101133.94
2022-10-08T01:18:27.223Z,101139.28
2022-10-08T01:21:05.125Z,101139.50
2022-10-08T01:24:06.527Z,101129.81
2022-10-08T01:26:53.900Z,101128.97
2022-10-08T01:29:28.706Z,101139.06
2022-10-08T01:32:03.348Z,101132.69
2022-10-08T01:34:35.950Z,101131.03
2022-10-08T01:37:05.527Z,101141.75
2022-10-08T01:39:37.043Z,101129.59
2022-10-08T01:42:08.459Z,101129.38
2022-10-08T01:44:41.792Z,101127.75
2022-10-08T01:47:14.793Z,101134.34
2022-10-08T01:49:46.766Z,101135.97
2022-10-08T01:52:20.942Z,101132.28
2022-10-08T01:54:52.478Z,101131.22
2022-10-08T01:57:20.079Z,101124.03
2022-10-08T01:59:55.606Z,101136.16
2022-10-08T02:02:25.117Z,101132.03
2022-10-08T02:04:55.085Z,101132.22
2022-10-08T02:07:25.270Z,101127.69
2022-10-08T02:10:01.656Z,101126.03
2022-10-08T02:12:29.769Z,101120.91
2022-10-08T02:14:59.932Z,101099.28
2022-10-08T02:17:36.390Z,101084.25
2022-10-08T02:20:12.180Z,101066.53
2022-10-08T02:22:48.710Z,101082.38
2022-10-08T02:25:24.805Z,101089.13
2022-10-08T02:27:59.381Z,101084.19
2022-10-08T02:30:36.734Z,101096.75
2022-10-08T02:33:08.629Z,101105.19
2022-10-08T02:35:41.202Z,101092.19
2022-10-08T02:38:14.788Z,101092.38
2022-10-08T02:40:45.503Z,101095.88
2022-10-08T02:43:19.654Z,101107.03
2022-10-08T02:45:53.944Z,101107.84
2022-10-08T02:48:27.205Z,101113.19
2022-10-08T02:50:58.600Z,101104.78
2022-10-08T02:53:26.556Z,101084.19
2022-10-08T02:56:06.997Z,101099.22
2022-10-08T02:58:35.012Z,101085.84
2022-10-08T03:01:10.617Z,101092.63
2022-10-08T03:03:44.171Z,101080.31
2022-10-08T03:06:13.709Z,101083.59
2022-10-08T03:08:47.154Z,101089.56
2022-10-08T03:11:15.325Z,101065.31
2022-10-08T03:13:47.484Z,101059.94
2022-10-08T03:16:20.642Z,101070.44
2022-10-08T03:18:48.526Z,101085.25
2022-10-08T03:21:16.817Z,101097.63
2022-10-08T03:23:44.620Z,101090.84
2022-10-08T03:26:12.137Z,101088.97
2022-10-08T03:28:39.699Z,101101.34
2022-10-08T03:31:07.458Z,101101.16
2022-10-08T03:33:36.447Z,101101.16
2022-10-08T03:36:04.769Z,101104.00
2022-10-08T03:38:34.706Z,101124.41
2022-10-08T03:41:02.581Z,101117.22
2022-10-08T03:43:32.869Z,101126.84
2022-10-08T03:46:00.690Z,101118.00
2022-10-08T03:48:28.692Z,101123.34
2022-10-08T03:51:00.077Z,101117.81
2022-10-08T03:53:29.234Z,101114.94
2022-10-08T03:55:57.097Z,101114.94
2022-10-08T03:58:24.701Z,101116.59
2022-10-08T04:01:03.196Z,101111.84
2022-10-08T04:03:31.894Z,101098.47
2022-10-08T04:06:01.146Z,101119.88
2022-10-08T04:08:29.273Z,101114.53
2022-10-08T04:10:56.997Z,101119.06
2022-10-08T04:13:24.535Z,101110.84
2022-10-08T04:15:52.097Z,101103.81
2022-10-08T04:18:19.708Z,101116.19
2022-10-08T04:20:47.236Z,101107.53
2022-10-08T04:23:16.119Z,101121.31
2022-10-08T04:25:50.937Z,101107.31
2022-10-08T04:28:19.103Z,101108.53
2022-10-08T04:30:56.066Z,101107.31
2022-10-08T04:33:23.891Z,101117.34
2022-10-08T04:35:52.711Z,101123.94
2022-10-08T04:38:24.568Z,101123.72
2022-10-08T04:41:02.752Z,101110.72
2022-10-08T04:43:30.369Z,101112.91
2022-10-08T04:45:57.991Z,101123.59
2022-10-08T04:48:25.623Z,101124.00
2022-10-08T04:50:56.501Z,101131.38
2022-10-08T04:53:26.570Z,101135.69
2022-10-08T04:55:54.922Z,101129.34
2022-10-08T04:58:26.569Z,101130.56
2022-10-08T05:00:54.518Z,101140.81
2022-10-08T05:03:22.046Z,101139.75
2022-10-08T05:05:49.577Z,101140.16
2022-10-08T05:08:17.114Z,101139.91
2022-10-08T05:10:50.186Z,101140.69
2022-10-08T05:13:17.715Z,101149.47
2022-10-08T05:15:45.339Z,101145.75
2022-10-08T05:18:12.969Z,101156.19
2022-10-08T05:20:40.575Z,101155.09
2022-10-08T05:23:08.366Z,101151.53
2022-10-08T05:25:36.609Z,101151.28
2022-10-08T05:28:05.972Z,101156.38
2022-10-08T05:30:33.546Z,101150.59
2022-10-08T05:33:01.229Z,101155.28
2022-10-08T05:35:28.783Z,101173.38
2022-10-08T05:37:56.412Z,101166.34
2022-10-08T05:40:24.256Z,101170.91
2022-10-08T05:42:51.899Z,101172.06
2022-10-08T05:45:20.763Z,101181.13
2022-10-08T05:47:49.175Z,101175.97
2022-10-08T05:50:17.103Z,101177.81
2022-10-08T05:52:45.203Z,101168.34
2022-10-08T05:55:13.031Z,101174.72
2022-10-08T05:57:40.541Z,101178.38
2022-10-08T06:00:09.353Z,101190.06
2022-10-08T06:02:38.307Z,101198.09
2022-10-08T06:05:06.631Z,101189.25
2022-10-08T06:07:34.278Z,101198.91
2022-10-08T06:10:01.826Z,101203.44
2022-10-08T06:12:29.362Z,101210.44
2022-10-08T06:14:56.987Z,101210.22
2022-10-08T06:17:24.513Z,101217.06
2022-10-08T06:19:53.370Z,101215.63
2022-10-08T06:22:21.022Z,101221.06
2022-10-08T06:24:48.680Z,101220.91
2022-10-08T06:27:16.305Z,101225.75
2022-10-08T06:29:43.906Z,101231.25
2022-10-08T06:32:11.538Z,101234.47
2022-10-08T06:34:39.077Z,101229.47
2022-10-08T06:37:07.943Z,101236.56
2022-10-08T06:39:35.479Z,101236.78
2022-10-08T06:42:02.993Z,101244.88
2022-10-08T06:44:30.530Z,101246.13
2022-10-08T06:46:58.218Z,101249.66
2022-10-08T06:49:26.713Z,101258.56
2022-10-08T06:51:54.277Z,101253.84
2022-10-08T06:54:26.045Z,101250.75
2022-10-08T06:56:53.662Z,101249.50
2022-10-08T06:59:21.198Z,101253.78
2022-10-08T07:01:48.740Z,101260.97
2022-10-08T07:04:16.338Z,101262.81
2022-10-08T07:06:44.303Z,101265.53
2022-10-08T07:09:13.343Z,101261.94
2022-10-08T07:11:42.231Z,101264.13
2022-10-08T07:14:09.768Z,101270.97
2022-10-08T07:16:37.334Z,101274.91
2022-10-08T07:19:04.905Z,101282.97
2022-10-08T07:21:32.504Z,101288.16
2022-10-08T07:24:01.762Z,101288.16
2022-10-08T07:26:32.367Z,101291.03
2022-10-08T07:29:03.666Z,101301.34
2022-10-08T07:31:32.828Z,101310.66
2022-10-08T07:34:01.917Z,101320.00
2022-10-08T07:36:30.297Z,101323.75
2022-10-08T07:38:59.279Z,101323.97
2022-10-08T07:41:27.081Z,101317.13
2022-10-08T07:43:58.359Z,101313.41
2022-10-08T07:46:27.728Z,101304.72
2022-10-08T07:48:56.761Z,101284.09
2022-10-08T07:51:24.509Z,101272.78
2022-10-08T07:53:52.029Z,101280.84
2022-10-08T07:56:23.475Z,101280.44
2022-10-08T07:58:51.513Z,101301.28
2022-10-08T08:01:21.262Z,101300.44
2022-10-08T08:03:55.263Z,101312.81
2022-10-08T08:06:24.014Z,101314.47
2022-10-08T08:08:52.165Z,101324.16
2022-10-08T08:11:23.135Z,101329.91
2022-10-08T08:13:51.301Z,101330.50
2022-10-08T08:16:20.845Z,101344.09
2022-10-08T08:18:50.805Z,101342.81
2022-10-08T08:21:21.995Z,101350.03
2022-10-08T08:23:51.823Z,101357.44
2022-10-08T08:26:21.010Z,101357.44
2022-10-08T08:28:52.498Z,101362.81
2022-10-08T08:31:22.767Z,101358.91
2022-10-08T08:33:51.814Z,101374.16
2022-10-08T08:36:24.636Z,101366.72
2022-10-08T08:38:52.246Z,101371.59
2022-10-08T08:41:39.239Z,101379.69
2022-10-08T08:44:11.801Z,101371.97
2022-10-08T08:46:45.137Z,101372.69
2022-10-08T08:49:17.758Z,101382.47
2022-10-08T08:51:47.004Z,101378.72
2022-10-08T08:54:14.672Z,101386.72
2022-10-08T08:56:42.521Z,101395.44
2022-10-08T08:59:24.395Z,101389.59
2022-10-08T09:01:54.314Z,101390.94
2022-10-08T09:04:25.902Z,101392.84
2022-10-08T09:06:57.223Z,101391.13
2022-10-08T09:09:28.181Z,101381.81
2022-10-08T09:11:56.491Z,101386.38
2022-10-08T09:14:35.758Z,101386.63
2022-10-08T09:17:14.923Z,101394.66
2022-10-08T09:19:42.830Z,101400.09
2022-10-08T09:22:22.174Z,101398.38
2022-10-08T09:24:51.886Z,101398.53
2022-10-08T09:27:19.593Z,101400.03
2022-10-08T09:29:47.430Z,101410.50
2022-10-08T09:32:17.882Z,101411.13
2022-10-08T09:34:48.173Z,101412.19
2022-10-08T09:37:24.406Z,101411.31
2022-10-08T09:40:21.251Z,101399.72
2022-10-08T09:43:13.658Z,101407.31
2022-10-08T09:45:44.134Z,101402.69
2022-10-08T09:48:20.868Z,101403.72
2022-10-08T09:50:52.666Z,101410.88
2022-10-08T09:53:23.335Z,101411.88
2022-10-08T09:55:56.290Z,101408.47
2022-10-08T09:58:24.400Z,101409.38
2022-10-08T10:01:02.170Z,101410.06
2022-10-08T10:03:30.059Z,101412.06
2022-10-08T10:05:59.615Z,101405.06
2022-10-08T10:08:51.612Z,101407.72
2022-10-08T10:11:25.410Z,101418.22
2022-10-08T10:13:52.978Z,101412.81
2022-10-08T10:16:26.383Z,101431.78
2022-10-08T10:18:59.135Z,101430.38
2022-10-08T10:21:35.800Z,101431.91
2022-10-08T10:24:20.826Z,101440.88
2022-10-08T10:26:51.229Z,101445.44
2022-10-08T10:29:22.270Z,101446.69
2022-10-08T10:31:55.117Z,101451.22
2022-10-08T10:34:26.577Z,101446.47
2022-10-08T10:36:58.474Z,101448.53
2022-10-08T10:39:37.421Z,101438.00
2022-10-08T10:42:15.337Z,101451.78
2022-10-08T10:44:52.148Z,101441.47
2022-10-08T10:47:22.720Z,101431.53
2022-10-08T10:49:51.839Z,101443.75
2022-10-08T10:52:49.909Z,101449.53
2022-10-08T10:55:24.302Z,101447.25
2022-10-08T10:58:10.733Z,101447.22
2022-10-08T11:00:46.925Z,101449.47
2022-10-08T11:03:22.762Z,101451.06
2022-10-08T11:05:59.542Z,101443.22
2022-10-08T11:08:36.698Z,101452.34
2022-10-08T11:11:18.513Z,101453.13
2022-10-08T11:13:58.966Z,101446.25
2022-10-08T11:16:40.421Z,101446.72
2022-10-08T11:19:18.365Z,101452.28
2022-10-08T11:21:56.418Z,101458.53
2022-10-08T11:24:38.140Z,101453.22
2022-10-08T11:27:13.566Z,101497.69
2022-10-08T11:29:48.563Z,101521.06
2022-10-08T11:32:19.145Z,101489.22
2022-10-08T11:34:53.120Z,101477.34
2022-10-08T11:37:27.805Z,101492.53
2022-10-08T11:40:04.134Z,101492.09
2022-10-08T11:42:47.483Z,101488.50
2022-10-08T11:45:31.612Z,101490.34
2022-10-08T11:48:00.721Z,101495.41
2022-10-08T11:50:31.534Z,101490.66
2022-10-08T11:53:14.765Z,101496.44
2022-10-08T11:55:51.186Z,101498.91
2022-10-08T11:58:23.814Z,101492.53
2022-10-08T12:00:55.163Z,101482.81
2022-10-08T12:03:28.127Z,101480.31
2022-10-08T12:05:58.644Z,101491.09
2022-10-08T12:08:55.435Z,101483.63
2022-10-08T12:11:52.330Z,101482.81
2022-10-08T12:14:33.562Z,101484.47
2022-10-08T12:17:11.518Z,101480.72
2022-10-08T12:20:06.997Z,101485.97
2022-10-08T12:22:46.003Z,101479.66
2022-10-08T12:25:34.567Z,101481.16
2022-10-08T12:28:55.985Z,101484.91
2022-10-08T12:31:39.819Z,101492.63
2022-10-08T12:34:17.635Z,101503.59
2022-10-08T12:36:55.005Z,101499.31
2022-10-08T12:39:33.987Z,101501.81
2022-10-08T12:42:10.498Z,101507.00
2022-10-08T12:44:46.430Z,101507.19
2022-10-08T12:47:26.362Z,101507.84
2022-10-08T12:49:59.130Z,101507.59
2022-10-08T12:52:27.707Z,101516.06
2022-10-08T12:54:57.918Z,101514.00
2022-10-08T12:57:30.268Z,101517.28
2022-10-08T13:00:00.300Z,101523.25
2022-10-08T13:02:37.590Z,101527.84
2022-10-08T13:05:06.158Z,101524.72
2022-10-08T13:07:35.704Z,101539.94
2022-10-08T13:10:17.181Z,101541.84
2022-10-08T13:12:46.166Z,101545.59
2022-10-08T13:15:23.852Z,101541.06
2022-10-08T13:17:53.526Z,101538.81
2022-10-08T13:20:23.137Z,101539.63
2022-10-08T13:22:51.322Z,101536.09
2022-10-08T13:25:36.426Z,101552.03
2022-10-08T13:28:15.578Z,101543.97
2022-10-08T13:30:46.358Z,101550.56
2022-10-08T13:33:19.607Z,101557.59
2022-10-08T13:35:53.599Z,101560.91
2022-10-08T13:38:24.691Z,101565.25
2022-10-08T13:40:54.950Z,101565.69
2022-10-08T13:43:23.021Z,101576.63
2022-10-08T13:45:50.542Z,101580.56
2022-10-08T13:48:19.409Z,101573.72
2022-10-08T13:50:48.673Z,101575.38
2022-10-08T13:53:17.938Z,101577.22
2022-10-08T13:55:47.211Z,101584.88
2022-10-08T13:58:16.646Z,101596.88
2022-10-08T14:00:46.713Z,101590.47
2022-10-08T14:03:14.547Z,101587.78
2022-10-08T14:05:47.027Z,101593.56
2022-10-08T14:08:18.070Z,101598.53
2022-10-08T14:10:45.865Z,101595.44
2022-10-08T14:13:14.582Z,101593.59
2022-10-08T14:15:42.530Z,101596.47
2022-10-08T14:18:10.209Z,101598.34
2022-10-08T14:20:39.161Z,101602.84
2022-10-08T14:23:08.196Z,101601.66
2022-10-08T14:25:35.726Z,101612.59
2022-10-08T14:28:03.463Z,101622.03
2022-10-08T14:30:31.019Z,101626.16
2022-10-08T14:32:58.638Z,101624.63
2022-10-08T14:35:26.250Z,101624.00
2022-10-08T14:37:53.778Z,101635.31
2022-10-08T14:40:23.367Z,101626.56
2022-10-08T14:42:51.607Z,101635.69
2022-10-08T14:45:19.865Z,101648.75
2022-10-08T14:47:47.405Z,101647.88
2022-10-08T14:50:15.026Z,101648.31
2022-10-08T14:52:44.596Z,101644.13
2022-10-08T14:55:13.251Z,101661.63
2022-10-08T14:57:42.627Z,101669.25
2022-10-08T15:00:11.266Z,101669.63
2022-10-08T15:02:38.907Z,101669.53
2022-10-08T15:05:07.277Z,101667.78
2022-10-08T15:07:34.816Z,101664.16
2022-10-08T15:10:02.472Z,101680.28
2022-10-08T15:12:30.003Z,101665.50
2022-10-08T15:14:59.026Z,101674.13
2022-10-08T15:17:26.612Z,101679.84
2022-10-08T15:19:54.189Z,101681.69
2022-10-08T15:22:21.821Z,101691.66
2022-10-08T15:24:49.355Z,101695.50
2022-10-08T15:27:20.653Z,101699.47
2022-10-08T15:29:48.611Z,101709.19
2022-10-08T15:32:17.497Z,101711.66
2022-10-08T15:34:45.022Z,101705.91
2022-10-08T15:37:12.551Z,101719.28
2022-10-08T15:39:40.074Z,101727.38
2022-10-08T15:42:08.061Z,101724.50
2022-10-08T15:44:35.667Z,101723.56
2022-10-08T15:47:05.926Z,101731.25
2022-10-08T15:49:37.103Z,101735.91
2022-10-08T15:52:06.012Z,101727.59
2022-10-08T15:54:35.583Z,101745.03
2022-10-08T15:57:03.104Z,101739.78
2022-10-08T15:59:30.870Z,101743.75
2022-10-08T16:01:58.429Z,101750.03
2022-10-08T16:04:26.262Z,101760.84
2022-10-08T16:06:55.525Z,101765.59
2022-10-08T16:09:23.859Z,101765.50
2022-10-08T16:11:52.042Z,101772.78
2022-10-08T16:14:21.163Z,101779.03
2022-10-08T16:16:49.602Z,101779.28
2022-10-08T16:19:19.225Z,101787.34
2022-10-08T16:21:48.539Z,101800.25
2022-10-08T16:24:18.411Z,101799.28
2022-10-08T16:26:48.590Z,101797.84
2022-10-08T16:29:18.239Z,101807.22
2022-10-08T16:31:46.870Z,101808.56
2022-10-08T16:34:16.169Z,101809.47
2022-10-08T16:36:43.794Z,101818.19
2022-10-08T16:39:13.271Z,101817.22
2022-10-08T16:41:42.350Z,101825.75
2022-10-08T16:44:13.171Z,101826.94
2022-10-08T16:46:42.637Z,101821.75
2022-10-08T16:49:16.446Z,101829.97
2022-10-08T16:51:48.121Z,101833.78
2022-10-08T16:54:17.581Z,101837.66
2022-10-08T16:56:47.357Z,101850.34
2022-10-08T16:59:17.296Z,101847.19
2022-10-08T17:01:46.506Z,101854.88
2022-10-08T17:04:15.590Z,101852.91
2022-10-08T17:06:44.420Z,101854.94
2022-10-08T17:09:12.054Z,101862.59
2022-10-08T17:11:40.015Z,101865.94
2022-10-08T17:14:10.148Z,101873.63
2022-10-08T17:16:38.134Z,101868.81
2022-10-08T17:19:06.581Z,101871.34
2022-10-08T17:21:34.994Z,101873.66
2022-10-08T17:24:03.451Z,101882.19
2022-10-08T17:26:31.934Z,101885.34
2022-10-08T17:29:04.465Z,101893.03
2022-10-08T17:31:34.182Z,101891.53
2022-10-08T17:34:02.648Z,101899.22
2022-10-08T17:36:31.794Z,101905.69
2022-10-08T17:39:00.815Z,101911.53
2022-10-08T17:41:30.620Z,101910.88
2022-10-08T17:44:00.226Z,101913.88
2022-10-08T17:46:29.717Z,101921.38
2022-10-08T17:48:58.953Z,101922.88
2022-10-08T17:51:28.930Z,101930.38
2022-10-08T17:53:58.257Z,101927.19
2022-10-08T17:56:26.446Z,101938.19
2022-10-08T17:58:54.635Z,101944.66
2022-10-08T18:01:23.915Z,101949.47
2022-10-08T18:03:53.279Z,101947.47
2022-10-08T18:06:23.083Z,101947.63
2022-10-08T18:08:55.517Z,101958.63
2022-10-08T18:11:23.409Z,101957.13
2022-10-08T18:13:51.001Z,101966.94
2022-10-08T18:16:20.012Z,101964.59
2022-10-08T18:18:48.574Z,101978.25
2022-10-08T18:21:18.036Z,101973.06
2022-10-08T18:23:48.132Z,101967.22
2022-10-08T18:26:19.344Z,101975.38
2022-10-08T18:28:48.164Z,101986.38
2022-10-08T18:31:16.603Z,101983.72
2022-10-08T18:33:46.258Z,101991.03
2022-10-08T18:36:16.237Z,101995.53
2022-10-08T18:38:45.781Z,101994.81
2022-10-08T18:41:16.887Z,101993.19
2022-10-08T18:43:45.786Z,102005.47
2022-10-08T18:46:14.195Z,102002.16
2022-10-08T18:48:42.128Z,102011.13
2022-10-08T18:51:11.958Z,102015.78
2022-10-08T18:53:41.382Z,102015.97
2022-10-08T18:56:10.569Z,102016.09
2022-10-08T18:58:39.457Z,102018.94
2022-10-08T19:01:08.220Z,102021.75
2022-10-08T19:03:35.817Z,102026.41
2022-10-08T19:06:07.027Z,102031.06
2022-10-08T19:08:34.559Z,102036.72
2022-10-08T19:11:09.597Z,102033.22
2022-10-08T19:13:37.222Z,102039.69
2022-10-08T19:16:13.035Z,102040.81
2022-10-08T19:18:42.573Z,102041.13
2022-10-08T19:21:10.282Z,102045.97
2022-10-08T19:23:37.873Z,102045.28
2022-10-08T19:26:05.952Z,102045.59
2022-10-08T19:28:33.867Z,102050.25
2022-10-08T19:31:01.752Z,102045.91
2022-10-08T19:33:30.671Z,102055.88
2022-10-08T19:36:01.804Z,102064.84
2022-10-08T19:38:29.418Z,102060.53
2022-10-08T19:40:56.970Z,102065.84
2022-10-08T19:43:24.542Z,102073.00
2022-10-08T19:45:52.070Z,102070.47
2022-10-08T19:48:19.619Z,102078.47
2022-10-08T19:50:48.858Z,102083.13
2022-10-08T19:53:16.394Z,102085.78
2022-10-08T19:55:44.283Z,102083.13
2022-10-08T19:58:12.170Z,102096.56
2022-10-08T20:00:39.734Z,102080.59
2022-10-08T20:03:07.293Z,102087.91
2022-10-08T20:05:35.002Z,102086.41
2022-10-08T20:08:03.902Z,102089.38
2022-10-08T20:10:31.435Z,102093.31
2022-10-08T20:12:58.954Z,102096.47
2022-10-08T20:15:26.604Z,102095.94
2022-10-08T20:17:54.129Z,102104.09
2022-10-08T20:20:33.008Z,102107.84
2022-10-08T20:23:01.008Z,102093.22
2022-10-08T20:25:29.938Z,102105.00
2022-10-08T20:27:57.493Z,102108.09
2022-10-08T20:30:25.111Z,102111.22
2022-10-08T20:32:52.664Z,102116.69
2022-10-08T20:35:20.547Z,102118.50
2022-10-08T20:37:48.085Z,102125.81
2022-10-08T20:40:15.773Z,102117.28
2022-10-08T20:42:44.699Z,102116.75
2022-10-08T20:45:12.839Z,102125.88
2022-10-08T20:47:40.703Z,102131.38
2022-10-08T20:50:08.786Z,102138.78
2022-10-08T20:52:36.330Z,102134.44
2022-10-08T20:55:03.865Z,102131.78
2022-10-08T20:57:31.429Z,102131.66
2022-10-08T21:00:00.285Z,102133.47
2022-10-08T21:02:27.889Z,102140.78
2022-10-08T21:04:55.447Z,102147.06
2022-10-08T21:07:22.969Z,102156.19
2022-10-08T21:09:52.544Z,102144.84
2022-10-08T21:12:20.070Z,102154.81
2022-10-08T21:14:47.610Z,102158.31
2022-10-08T21:17:16.482Z,102153.28
2022-10-08T21:19:44.002Z,102154.13
2022-10-08T21:22:11.515Z,102164.91
2022-10-08T21:24:39.024Z,102164.22
2022-10-08T21:27:06.545Z,102166.19
2022-10-08T21:29:34.106Z,102164.34
2022-10-08T21:32:01.742Z,102168.03
2022-10-08T21:34:30.651Z,102174.31
2022-10-08T21:36:58.174Z,102180.63
2022-10-08T21:39:26.050Z,102177.44
2022-10-08T21:41:54.832Z,102174.78
2022-10-08T21:44:22.622Z,102182.03
2022-10-08T21:46:50.166Z,102181.34
2022-10-08T21:49:20.398Z,102183.34
2022-10-08T21:51:49.638Z,102192.28
2022-10-08T21:54:17.371Z,102196.06
2022-10-08T21:56:45.436Z,102190.09
2022-10-08T21:59:14.795Z,102190.09
2022-10-08T22:01:44.027Z,102194.56
2022-10-08T22:04:13.394Z,102199.03
2022-10-08T22:06:42.643Z,102198.34
2022-10-08T22:09:13.865Z,102196.66
2022-10-08T22:11:41.752Z,102193.41
2022-10-08T22:14:09.679Z,102192.75
2022-10-08T22:16:38.095Z,102188.56
2022-10-08T22:19:06.091Z,102188.84
2022-10-08T22:21:34.109Z,102196.09
2022-10-08T22:24:01.630Z,102200.88
2022-10-08T22:26:32.520Z,102201.19
2022-10-08T22:29:00.847Z,102209.44
2022-10-08T22:31:29.550Z,102204.44
2022-10-08T22:33:57.361Z,102205.53
2022-10-08T22:36:26.729Z,102208.63
2022-10-08T22:38:56.360Z,102200.94
2022-10-08T22:41:26.103Z,102211.97
2022-10-08T22:43:55.470Z,102216.78
2022-10-08T22:46:25.835Z,102215.50
2022-10-08T22:48:53.458Z,102215.94
2022-10-08T22:51:22.289Z,102211.06
2022-10-08T22:53:50.222Z,102208.97
2022-10-08T22:56:20.513Z,102213.72
2022-10-08T22:58:49.096Z,102216.78
2022-10-08T23:01:19.701Z,102219.72
2022-10-08T23:03:48.262Z,102218.34
2022-10-08T23:06:18.585Z,102220.28
2022-10-08T23:08:47.814Z,102217.78
2022-10-08T23:11:16.785Z,102217.78
2022-10-08T23:13:45.758Z,102223.22
2022-10-08T23:16:15.662Z,102229.25
2022-10-08T23:18:46.703Z,102228.25
2022-10-08T23:21:16.447Z,102239.59
2022-10-08T23:23:45.123Z,102239.44
2022-10-08T23:26:13.573Z,102239.44
2022-10-08T23:28:41.791Z,102237.75
2022-10-08T23:31:12.025Z,102234.28
2022-10-08T23:33:42.013Z,102237.91
2022-10-08T23:36:12.997Z,102236.09
2022-10-08T23:38:40.823Z,102237.91
2022-10-08T23:41:10.257Z,102243.34
2022-10-08T23:43:39.816Z,102248.81
2022-10-08T23:46:08.441Z,102242.81
2022-10-08T23:48:36.174Z,102233.28
2022-10-08T23:51:05.065Z,102237.06
2022-10-08T23:53:34.643Z,102247.94
2022-10-08T23:56:02.220Z,102253.41
2022-10-08T23:58:30.030Z,102243.19
